createdAt,value
2022-12-11T00:00:40.443Z,3.20
2022-12-11T00:03:43.473Z,3.20
2022-12-11T00:06:46.239Z,3.20
2022-12-11T00:09:49.543Z,3.20
2022-12-11T00:12:53.696Z,3.10
2022-12-11T00:15:56.563Z,3.00
2022-12-11T00:18:59.359Z,3.00
2022-12-11T00:22:02.155Z,3.00
2022-12-11T00:25:05.614Z,2.90
2022-12-11T00:28:09.779Z,2.90
2022-12-11T00:31:16.653Z,2.80
2022-12-11T00:34:19.519Z,2.70
2022-12-11T00:37:22.345Z,2.70
2022-12-11T00:40:25.277Z,2.80
2022-12-11T00:43:29.401Z,2.80
2022-12-11T00:46:32.252Z,2.80
2022-12-11T00:49:35.050Z,2.90
2022-12-11T00:52:37.834Z,2.90
2022-12-11T00:55:42.151Z,2.90
2022-12-11T00:58:46.931Z,3.00
2022-12-11T01:01:49.775Z,3.00
2022-12-11T01:04:52.623Z,3.00
2022-12-11T01:07:55.467Z,2.90
2022-12-11T01:11:06.377Z,2.80
2022-12-11T01:14:11.908Z,2.80
2022-12-11T01:17:14.722Z,2.90
2022-12-11T01:20:18.098Z,2.80
2022-12-11T01:23:21.323Z,2.80
2022-12-11T01:26:24.170Z,2.80
2022-12-11T01:29:28.286Z,2.80
2022-12-11T01:32:31.159Z,2.80
2022-12-11T01:35:33.958Z,2.80
2022-12-11T01:38:36.783Z,2.80
2022-12-11T01:41:39.608Z,2.70
2022-12-11T01:45:27.093Z,2.80
2022-12-11T01:48:36.706Z,2.70
2022-12-11T01:51:46.797Z,2.70
2022-12-11T01:54:51.305Z,2.70
2022-12-11T01:57:54.745Z,2.70
2022-12-11T02:00:59.312Z,2.70
2022-12-11T02:04:03.816Z,2.70
2022-12-11T02:07:07.130Z,2.70
2022-12-11T02:10:12.718Z,2.70
2022-12-11T02:13:22.796Z,2.80
2022-12-11T02:16:32.384Z,2.80
2022-12-11T02:19:49.820Z,2.70
2022-12-11T02:23:35.264Z,2.70
2022-12-11T02:26:55.879Z,2.70
2022-12-11T02:30:03.919Z,2.70
2022-12-11T02:33:08.194Z,2.70
2022-12-11T02:36:12.355Z,2.70
2022-12-11T02:39:17.489Z,2.70
2022-12-11T02:42:22.409Z,2.60
2022-12-11T02:45:29.223Z,2.60
2022-12-11T02:48:34.936Z,2.50
2022-12-11T02:51:41.136Z,2.60
2022-12-11T02:54:44.898Z,2.50
2022-12-11T02:57:52.724Z,2.60
2022-12-11T03:00:56.990Z,2.60
2022-12-11T03:03:59.970Z,2.60
2022-12-11T03:07:11.869Z,2.50
2022-12-11T03:10:18.833Z,2.50
2022-12-11T03:13:23.602Z,2.50
2022-12-11T03:16:35.574Z,2.50
2022-12-11T03:19:41.391Z,2.50
2022-12-11T03:22:50.044Z,2.50
2022-12-11T03:25:56.622Z,2.60
2022-12-11T03:29:03.389Z,2.60
2022-12-11T03:32:10.346Z,2.70
2022-12-11T03:35:18.368Z,2.60
2022-12-11T03:38:25.812Z,2.60
2022-12-11T03:41:30.521Z,2.60
2022-12-11T03:44:34.478Z,2.60
2022-12-11T03:47:40.437Z,2.60
2022-12-11T03:50:44.252Z,2.60
2022-12-11T03:53:47.779Z,2.60
2022-12-11T03:56:54.793Z,2.70
2022-12-11T03:59:58.337Z,2.70
2022-12-11T04:03:14.892Z,2.70
2022-12-11T04:06:17.878Z,2.70
2022-12-11T04:09:20.661Z,2.80
2022-12-11T04:12:23.579Z,2.70
2022-12-11T04:15:26.359Z,2.70
2022-12-11T04:18:48.203Z,2.70
2022-12-11T04:22:08.567Z,2.60
2022-12-11T04:25:11.623Z,2.60
2022-12-11T04:28:14.598Z,2.60
2022-12-11T04:31:20.420Z,2.50
2022-12-11T04:34:24.680Z,2.50
2022-12-11T04:37:29.785Z,2.50
2022-12-11T04:40:32.572Z,2.50
2022-12-11T04:43:35.587Z,2.40
2022-12-11T04:46:38.417Z,2.50
2022-12-11T04:49:42.583Z,2.40
2022-12-11T04:52:45.730Z,2.40
2022-12-11T04:55:48.538Z,2.30
2022-12-11T04:58:51.355Z,2.30
2022-12-11T05:01:54.193Z,2.20
2022-12-11T05:04:58.352Z,2.20
2022-12-11T05:08:01.215Z,2.20
2022-12-11T05:11:06.047Z,2.10
2022-12-11T05:14:08.855Z,2.10
2022-12-11T05:17:11.643Z,2.20
2022-12-11T05:20:15.785Z,2.20
2022-12-11T05:23:18.787Z,2.00
2022-12-11T05:26:22.069Z,2.10
2022-12-11T05:29:24.896Z,2.00
2022-12-11T05:32:27.856Z,2.10
2022-12-11T05:35:32.249Z,2.10
2022-12-11T05:38:35.996Z,2.20
2022-12-11T05:41:38.822Z,2.20
2022-12-11T05:44:41.624Z,2.30
2022-12-11T05:47:44.422Z,2.30
2022-12-11T05:50:58.064Z,2.40
2022-12-11T05:54:01.472Z,2.30
2022-12-11T05:57:04.264Z,2.40
2022-12-11T06:00:08.099Z,2.30
2022-12-11T06:03:11.091Z,2.30
2022-12-11T06:06:15.707Z,2.20
2022-12-11T06:09:18.701Z,2.30
2022-12-11T06:12:21.493Z,2.30
2022-12-11T06:15:24.381Z,2.30
2022-12-11T06:18:27.162Z,2.30
2022-12-11T06:21:33.447Z,2.30
2022-12-11T06:24:36.231Z,2.30
2022-12-11T06:27:39.038Z,2.30
2022-12-11T06:30:41.839Z,2.30
2022-12-11T06:33:45.063Z,2.20
2022-12-11T06:36:49.170Z,2.10
2022-12-11T06:39:51.969Z,2.20
2022-12-11T06:42:55.627Z,2.10
2022-12-11T06:46:03.575Z,2.20
2022-12-11T06:49:06.909Z,2.10
2022-12-11T06:52:16.598Z,2.10
2022-12-11T06:55:21.130Z,2.10
2022-12-11T06:58:23.938Z,2.10
2022-12-11T07:01:29.003Z,2.10
2022-12-11T07:04:32.048Z,2.10
2022-12-11T07:07:36.206Z,2.10
2022-12-11T07:10:39.027Z,2.20
2022-12-11T07:13:42.949Z,2.20
2022-12-11T07:16:45.760Z,2.20
2022-12-11T07:19:48.569Z,2.20
2022-12-11T07:22:54.342Z,2.10
2022-12-11T07:25:57.692Z,2.10
2022-12-11T07:29:01.688Z,2.20
2022-12-11T07:32:04.725Z,2.30
2022-12-11T07:35:08.427Z,2.30
2022-12-11T07:38:12.659Z,2.20
2022-12-11T07:41:16.547Z,2.20
2022-12-11T07:44:19.364Z,2.10
2022-12-11T07:47:22.169Z,2.10
2022-12-11T07:50:24.981Z,2.10
2022-12-11T07:53:29.122Z,2.10
2022-12-11T07:56:32.643Z,2.10
2022-12-11T07:59:35.419Z,2.00
2022-12-11T08:02:38.549Z,2.10
2022-12-11T08:05:41.759Z,2.00
2022-12-11T08:08:46.711Z,2.00
2022-12-11T08:11:51.333Z,2.00
2022-12-11T08:14:54.275Z,2.10
2022-12-11T08:17:57.058Z,2.10
2022-12-11T08:20:59.831Z,2.00
2022-12-11T08:24:03.956Z,2.00
2022-12-11T08:27:06.730Z,2.00
2022-12-11T08:30:10.470Z,2.10
2022-12-11T08:33:13.239Z,2.10
2022-12-11T08:36:17.697Z,2.00
2022-12-11T08:39:21.796Z,2.10
2022-12-11T08:42:24.584Z,2.10
2022-12-11T08:45:27.374Z,2.10
2022-12-11T08:48:30.150Z,2.10
2022-12-11T08:51:32.934Z,2.20
2022-12-11T08:54:37.789Z,2.10
2022-12-11T08:57:40.698Z,2.10
2022-12-11T09:00:43.495Z,2.10
2022-12-11T09:03:46.282Z,2.10
2022-12-11T09:06:49.284Z,2.10
2022-12-11T09:09:55.331Z,2.20
2022-12-11T09:12:58.104Z,2.20
2022-12-11T09:16:01.125Z,2.10
2022-12-11T09:19:04.867Z,2.20
2022-12-11T09:22:09.920Z,2.30
2022-12-11T09:25:14.091Z,2.20
2022-12-11T09:28:17.339Z,2.30
2022-12-11T09:31:23.422Z,2.20
2022-12-11T09:34:29.399Z,2.10
2022-12-11T09:37:33.817Z,2.10
2022-12-11T09:40:41.657Z,2.10
2022-12-11T09:43:47.888Z,2.10
2022-12-11T09:46:51.931Z,2.10
2022-12-11T09:50:03.226Z,2.10
2022-12-11T09:53:13.645Z,2.20
2022-12-11T09:56:23.552Z,2.20
2022-12-11T09:59:33.500Z,2.20
2022-12-11T10:02:47.550Z,2.40
2022-12-11T10:06:04.241Z,2.30
2022-12-11T10:09:18.178Z,2.30
2022-12-11T10:12:33.709Z,2.40
2022-12-11T10:15:40.124Z,2.30
2022-12-11T10:18:43.580Z,2.30
2022-12-11T10:21:47.749Z,2.30
2022-12-11T10:25:10.720Z,2.00
2022-12-11T10:28:17.403Z,2.10
2022-12-11T10:31:25.339Z,1.90
2022-12-11T10:34:35.992Z,2.10
2022-12-11T10:37:40.153Z,2.20
2022-12-11T10:40:46.573Z,2.40
2022-12-11T10:43:52.244Z,2.50
2022-12-11T10:47:06.994Z,2.60
2022-12-11T10:50:24.788Z,2.50
2022-12-11T10:53:28.074Z,2.50
2022-12-11T10:56:33.904Z,2.50
2022-12-11T10:59:45.204Z,2.60
2022-12-11T11:02:48.091Z,2.70
2022-12-11T11:05:51.516Z,2.70
2022-12-11T11:08:56.205Z,2.70
2022-12-11T11:12:01.913Z,2.90
2022-12-11T11:15:14.215Z,2.70
2022-12-11T11:18:25.326Z,2.80
2022-12-11T11:21:30.157Z,2.50
2022-12-11T11:24:39.767Z,2.60
2022-12-11T11:27:46.914Z,2.70
2022-12-11T11:31:05.029Z,2.80
2022-12-11T11:34:10.868Z,2.70
2022-12-11T11:37:26.157Z,2.80
2022-12-11T11:40:31.742Z,3.00
2022-12-11T11:43:39.957Z,3.00
2022-12-11T11:46:48.918Z,2.90
2022-12-11T11:50:00.834Z,2.90
2022-12-11T11:53:07.055Z,3.10
2022-12-11T11:56:21.227Z,3.10
2022-12-11T11:59:28.484Z,3.10
2022-12-11T12:02:32.773Z,3.00
2022-12-11T12:05:43.294Z,3.00
2022-12-11T12:08:53.863Z,2.90
2022-12-11T12:12:04.737Z,2.90
2022-12-11T12:15:33.644Z,2.90
2022-12-11T12:18:48.528Z,2.80
2022-12-11T12:21:53.401Z,2.70
2022-12-11T12:25:07.095Z,2.60
2022-12-11T12:28:20.781Z,2.80
2022-12-11T12:31:41.339Z,2.90
2022-12-11T12:35:03.855Z,2.90
2022-12-11T12:38:12.610Z,2.90
2022-12-11T12:41:21.720Z,2.90
2022-12-11T12:44:25.884Z,3.10
2022-12-11T12:47:33.396Z,3.00
2022-12-11T12:50:41.922Z,2.90
2022-12-11T12:53:49.960Z,3.00
2022-12-11T12:56:52.827Z,3.00
2022-12-11T12:59:56.164Z,3.00
2022-12-11T13:03:00.377Z,2.90
2022-12-11T13:06:07.119Z,2.80
2022-12-11T13:09:19.243Z,2.80
2022-12-11T13:12:40.519Z,2.80
2022-12-11T13:15:44.311Z,2.80
2022-12-11T13:18:49.009Z,2.90
2022-12-11T13:21:58.322Z,2.70
2022-12-11T13:25:04.750Z,2.80
2022-12-11T13:28:09.485Z,2.70
2022-12-11T13:31:36.673Z,2.70
2022-12-11T13:34:43.672Z,2.60
2022-12-11T13:37:50.911Z,2.70
2022-12-11T13:40:55.708Z,2.70
2022-12-11T13:43:59.545Z,2.70
2022-12-11T13:47:04.868Z,2.50
2022-12-11T13:50:17.592Z,2.70
2022-12-11T13:53:22.741Z,2.60
2022-12-11T13:56:25.759Z,2.70
2022-12-11T13:59:32.002Z,2.70
2022-12-11T14:02:38.732Z,2.60
2022-12-11T14:05:42.959Z,2.70
2022-12-11T14:08:51.027Z,2.80
2022-12-11T14:11:57.264Z,2.70
2022-12-11T14:15:03.745Z,2.80
2022-12-11T14:18:07.027Z,2.80
2022-12-11T14:21:20.845Z,2.90
2022-12-11T14:24:25.073Z,2.70
2022-12-11T14:27:28.613Z,2.60
2022-12-11T14:30:34.069Z,2.60
2022-12-11T14:33:41.470Z,2.70
2022-12-11T14:36:45.241Z,2.60
2022-12-11T14:39:58.187Z,2.50
2022-12-11T14:43:05.226Z,2.60
2022-12-11T14:46:11.313Z,2.70
2022-12-11T14:49:21.187Z,2.60
2022-12-11T14:52:29.977Z,2.50
2022-12-11T14:55:35.679Z,2.60
2022-12-11T14:58:44.643Z,2.60
2022-12-11T15:01:58.557Z,2.50
2022-12-11T15:05:12.781Z,2.40
2022-12-11T15:08:24.626Z,2.50
2022-12-11T15:11:33.380Z,2.40
2022-12-11T15:14:36.281Z,2.50
2022-12-11T15:17:40.795Z,2.50
2022-12-11T15:20:43.651Z,2.40
2022-12-11T15:23:53.121Z,2.40
2022-12-11T15:27:01.635Z,2.40
2022-12-11T15:30:17.639Z,2.40
2022-12-11T15:33:22.506Z,2.40
2022-12-11T15:36:31.390Z,2.30
2022-12-11T15:39:34.147Z,2.20
2022-12-11T15:42:41.538Z,2.10
2022-12-11T15:45:44.442Z,2.10
2022-12-11T15:48:49.373Z,2.10
2022-12-11T15:51:52.611Z,2.20
2022-12-11T15:54:55.697Z,2.10
2022-12-11T15:58:04.197Z,2.10
2022-12-11T16:01:07.249Z,2.10
2022-12-11T16:04:10.034Z,2.00
2022-12-11T16:07:18.157Z,2.10
2022-12-11T16:10:21.994Z,2.10
2022-12-11T16:13:26.118Z,2.10
2022-12-11T16:16:28.875Z,2.10
2022-12-11T16:19:31.626Z,2.10
2022-12-11T16:22:34.468Z,2.10
2022-12-11T16:25:38.995Z,2.10
2022-12-11T16:28:43.500Z,2.10
2022-12-11T16:31:46.285Z,2.10
2022-12-11T16:34:49.066Z,2.10
2022-12-11T16:37:52.520Z,2.00
2022-12-11T16:41:01.651Z,2.00
2022-12-11T16:44:08.071Z,1.90
2022-12-11T16:47:10.837Z,1.90
2022-12-11T16:50:15.152Z,1.90
2022-12-11T16:53:18.224Z,1.80
2022-12-11T16:56:20.986Z,1.90
2022-12-11T16:59:25.129Z,1.90
2022-12-11T17:02:28.073Z,1.80
2022-12-11T17:05:30.887Z,1.80
2022-12-11T17:08:33.676Z,1.80
2022-12-11T17:11:36.484Z,1.70
2022-12-11T17:14:40.618Z,1.60
2022-12-11T17:17:44.003Z,1.60
2022-12-11T17:20:46.816Z,1.60
2022-12-11T17:23:50.529Z,1.50
2022-12-11T17:26:53.730Z,1.60
2022-12-11T17:29:57.908Z,1.50
2022-12-11T17:33:02.702Z,1.60
2022-12-11T17:36:07.619Z,1.60
2022-12-11T17:39:10.781Z,1.70
2022-12-11T17:42:13.862Z,1.70
2022-12-11T17:45:18.263Z,1.70
2022-12-11T17:48:22.382Z,1.70
2022-12-11T17:51:25.179Z,1.70
2022-12-11T17:54:28.062Z,1.70
2022-12-11T17:57:30.895Z,1.80
2022-12-11T18:00:36.162Z,1.80
2022-12-11T18:03:39.152Z,1.70
2022-12-11T18:06:42.111Z,1.70
2022-12-11T18:09:45.275Z,1.70
2022-12-11T18:12:48.071Z,1.70
2022-12-11T18:16:02.572Z,1.80
2022-12-11T18:19:06.252Z,1.70
2022-12-11T18:22:09.076Z,1.70
2022-12-11T18:25:12.891Z,1.70
2022-12-11T18:28:15.998Z,1.70
2022-12-11T18:31:21.500Z,1.60
2022-12-11T18:34:24.300Z,1.70
2022-12-11T18:37:28.195Z,1.70
2022-12-11T18:40:31.180Z,1.70
2022-12-11T18:43:34.246Z,1.70
2022-12-11T18:46:39.269Z,1.80
2022-12-11T18:49:42.177Z,1.80
2022-12-11T18:52:44.982Z,1.80
2022-12-11T18:55:49.674Z,1.80
2022-12-11T18:58:52.957Z,1.80
2022-12-11T19:01:57.224Z,1.80
2022-12-11T19:05:00.147Z,1.80
2022-12-11T19:08:04.024Z,1.70
2022-12-11T19:11:07.600Z,1.80
2022-12-11T19:14:11.639Z,1.80
2022-12-11T19:17:15.788Z,2.00
2022-12-11T19:20:47.376Z,2.00
2022-12-11T19:23:42.483Z,2.00
2022-12-11T19:26:46.034Z,2.00
2022-12-11T19:29:48.845Z,2.00
2022-12-11T19:32:52.987Z,2.10
2022-12-11T19:36:02.750Z,2.10
2022-12-11T19:39:11.344Z,2.10
2022-12-11T19:42:15.753Z,2.10
2022-12-11T19:45:18.814Z,2.00
2022-12-11T19:48:22.934Z,2.00
2022-12-11T19:51:28.341Z,2.00
2022-12-11T19:54:32.373Z,2.00
2022-12-11T19:57:36.042Z,2.00
2022-12-11T20:00:39.218Z,2.00
2022-12-11T20:03:43.402Z,2.00
2022-12-11T20:06:48.181Z,2.00
2022-12-11T20:09:51.011Z,2.10
2022-12-11T20:12:56.460Z,2.00
2022-12-11T20:15:59.621Z,2.00
2022-12-11T20:19:05.057Z,2.00
2022-12-11T20:22:09.118Z,1.80
2022-12-11T20:25:12.305Z,1.80
2022-12-11T20:28:15.329Z,1.80
2022-12-11T20:31:21.221Z,1.80
2022-12-11T20:34:25.537Z,1.70
2022-12-11T20:37:29.058Z,1.80
2022-12-11T20:40:33.240Z,1.80
2022-12-11T20:43:36.051Z,1.80
2022-12-11T20:46:38.931Z,1.80
2022-12-11T20:49:43.583Z,1.70
2022-12-11T20:52:46.570Z,1.70
2022-12-11T20:55:49.351Z,1.70
2022-12-11T20:58:52.149Z,1.70
2022-12-11T21:01:55.744Z,1.80
2022-12-11T21:04:59.993Z,1.80
2022-12-11T21:08:02.890Z,1.80
2022-12-11T21:11:07.129Z,1.80
2022-12-11T21:14:10.311Z,1.70
2022-12-11T21:17:13.103Z,1.70
2022-12-11T21:20:17.605Z,1.60
2022-12-11T21:23:20.668Z,1.60
2022-12-11T21:26:23.913Z,1.50
2022-12-11T21:29:29.329Z,1.50
2022-12-11T21:32:32.339Z,1.50
2022-12-11T21:35:36.689Z,1.50
2022-12-11T21:38:40.599Z,1.50
2022-12-11T21:41:43.628Z,1.50
2022-12-11T21:48:10.034Z,1.40
2022-12-11T21:51:16.994Z,1.50
2022-12-11T21:54:20.626Z,1.40
2022-12-11T21:57:26.498Z,1.40
2022-12-11T22:00:30.260Z,1.40
2022-12-11T22:03:33.381Z,1.40
2022-12-11T22:06:37.848Z,1.40
2022-12-11T22:09:40.745Z,1.40
2022-12-11T22:12:43.765Z,1.40
2022-12-11T22:15:47.011Z,1.30
2022-12-11T22:18:50.087Z,1.30
2022-12-11T22:21:54.389Z,1.50
2022-12-11T22:24:57.308Z,1.30
2022-12-11T22:28:00.204Z,1.30
2022-12-11T22:31:03.137Z,1.40
2022-12-11T22:34:06.181Z,1.40
2022-12-11T22:37:10.712Z,1.40
2022-12-11T22:40:13.812Z,1.40
2022-12-11T22:43:16.728Z,1.40
2022-12-11T22:46:21.750Z,1.30
2022-12-11T22:49:24.735Z,1.30
2022-12-11T22:52:29.863Z,1.30
2022-12-11T22:55:33.189Z,1.30
2022-12-11T22:58:36.661Z,1.20
2022-12-11T23:01:39.650Z,1.20
2022-12-11T23:04:42.546Z,1.20
2022-12-11T23:07:46.965Z,1.30
2022-12-11T23:10:50.070Z,1.20
2022-12-11T23:13:53.536Z,1.20
2022-12-11T23:16:56.448Z,1.20
2022-12-11T23:20:00.429Z,1.20
2022-12-11T23:23:04.741Z,1.10
2022-12-11T23:26:09.861Z,1.10
2022-12-11T23:29:12.776Z,1.10
2022-12-11T23:32:15.757Z,1.00
2022-12-11T23:35:18.844Z,0.90
2022-12-11T23:38:23.098Z,1.00
2022-12-11T23:41:26.264Z,1.00
2022-12-11T23:44:29.226Z,1.00
2022-12-11T23:47:32.109Z,1.00
2022-12-11T23:50:35.065Z,1.00
2022-12-11T23:53:39.794Z,1.00
2022-12-11T23:56:42.744Z,0.80
2022-12-11T23:59:45.739Z,0.90
